Amsterdam, Montana
Current Conditions -  °F | °C
As of 1:56 AM on Thursday 23 Oct 2014 (Local Time) from KBZN Reporting Station
Clear Clear  
Wind Chill: 30°   Ceiling: Unl
Heat Index: 36°   Visibility: 10mi
Dew Point: 29°   Wind: 7mph
Humidity: 76%   Direction: 150°SSE
Pressure: 29.99"   Gusts: NA
Location:  45.7517°N, 111.347°W
Report Text: KBZN 230756Z AUTO 15006KT 10SM CLR 02/M02 A2999 RMK AO2 SLP156 T00221017
Loading
Personal Weather Stations






























Interactive Weather Map
Tropical Storm Tracking
New forecast layout! Learn more

10-Day Weather Forecast

Advertisements
Track Severe Weather on mobile